Time;durP1;ratioP1;P1;durP2;ratioP2;P2;SDS_P1;SDS_P2;PMS_P1;PMS_P2;Temp;Humidity;BMP_temperature;BMP_pressure;BME280_temperature;BME280_humidity;BME280_pressure;Samples;Min_cycle;Max_cycle;Signal;HPM_P1;HPM_P2
2023/09/03 00:00:26;;;;;;;4.63;3.50;;;22.50;62.90;;;;;;5056442;28;20353;-78
2023/09/03 00:02:53;;;;;;;3.78;3.40;;;22.50;63.00;;;;;;5039203;28;20657;-78
2023/09/03 00:05:21;;;;;;;5.13;3.88;;;22.50;63.00;;;;;;5055504;28;20230;-78
2023/09/03 00:07:50;;;;;;;4.78;3.50;;;22.40;62.90;;;;;;5056723;28;20188;-78
2023/09/03 00:10:17;;;;;;;6.15;3.10;;;22.50;63.10;;;;;;5055387;28;20658;-78
2023/09/03 00:12:44;;;;;;;3.80;3.40;;;22.50;63.10;;;;;;5055382;28;20566;-78
2023/09/03 00:15:12;;;;;;;5.20;3.72;;;22.40;63.00;;;;;;5055392;28;20568;-78
2023/09/03 00:17:39;;;;;;;3.67;3.30;;;22.40;62.90;;;;;;5055296;28;20192;-78
2023/09/03 00:20:07;;;;;;;6.93;3.60;;;22.40;62.90;;;;;;5055223;28;20298;-78
2023/09/03 00:22:36;;;;;;;3.60;3.22;;;22.40;63.00;;;;;;5055694;28;20203;-78
2023/09/03 00:25:03;;;;;;;5.72;3.30;;;22.40;63.00;;;;;;5055358;28;20183;-78
2023/09/03 00:27:31;;;;;;;5.85;3.22;;;22.40;63.00;;;;;;5055185;28;20220;-78
2023/09/03 00:29:58;;;;;;;3.70;3.40;;;22.40;63.00;;;;;;5056663;28;20191;-78
2023/09/03 00:32:26;;;;;;;3.78;3.38;;;22.40;63.00;;;;;;5055130;28;20219;-78
2023/09/03 00:34:53;;;;;;;4.85;3.33;;;22.30;62.90;;;;;;5055110;28;20195;-78
2023/09/03 00:37:20;;;;;;;3.90;2.83;;;22.40;63.00;;;;;;5056057;28;20250;-78
2023/09/03 00:39:49;;;;;;;5.68;3.53;;;22.40;63.00;;;;;;5055552;28;20203;-79
2023/09/03 00:42:15;;;;;;;3.35;3.05;;;22.30;62.80;;;;;;5055703;28;20215;-79
2023/09/03 00:44:43;;;;;;;4.60;3.30;;;22.30;62.80;;;;;;5055513;28;20654;-79
2023/09/03 00:47:10;;;;;;;3.65;3.00;;;22.30;62.80;;;;;;5055961;28;20226;-79
2023/09/03 00:49:43;;;;;;;3.75;3.10;;;22.30;62.80;;;;;;5058149;28;20206;-79
2023/09/03 00:52:10;;;;;;;3.70;3.30;;;22.30;62.80;;;;;;5056105;28;20689;-79
2023/09/03 00:54:37;;;;;;;3.38;3.08;;;22.30;62.70;;;;;;5055574;28;20557;-79
2023/09/03 00:57:06;;;;;;;4.32;3.05;;;22.30;62.60;;;;;;5055701;28;20203;-79
2023/09/03 00:59:33;;;;;;;3.63;3.00;;;22.30;62.60;;;;;;5055433;28;20601;-79
2023/09/03 01:02:00;;;;;;;3.47;3.10;;;22.30;62.60;;;;;;5056221;28;20215;-79
2023/09/03 01:04:26;;;;;;;3.30;3.00;;;22.30;62.70;;;;;;5038272;28;20203;-79
2023/09/03 01:06:53;;;;;;;3.47;3.15;;;22.30;62.70;;;;;;5055125;28;20242;-79
2023/09/03 01:09:21;;;;;;;3.60;2.88;;;22.30;62.60;;;;;;5056453;28;20218;-79
2023/09/03 01:11:53;;;;;;;3.20;2.90;;;22.20;62.50;;;;;;5054989;28;20219;-79
2023/09/03 01:14:27;;;;;;;3.10;2.53;;;22.20;62.60;;;;;;5055002;28;20195;-79
2023/09/03 01:16:56;;;;;;;3.03;2.78;;;22.30;62.60;;;;;;5055359;28;20194;-79
2023/09/03 01:19:37;;;;;;;5.15;2.95;;;22.20;62.60;;;;;;5054855;28;20622;-79
2023/09/03 01:22:06;;;;;;;3.55;2.90;;;22.20;62.50;;;;;;5054903;28;20226;-79
2023/09/03 01:24:53;;;;;;;3.08;2.80;;;22.20;62.50;;;;;;5055227;28;20207;-79
2023/09/03 01:27:25;;;;;;;2.78;2.58;;;22.20;62.50;;;;;;5055166;28;20351;-79
2023/09/03 01:29:55;;;;;;;3.75;2.97;;;22.20;62.50;;;;;;5055200;28;20662;-79
2023/09/03 01:32:22;;;;;;;4.55;2.72;;;22.20;62.50;;;;;;5054578;28;20283;-79
2023/09/03 01:34:49;;;;;;;4.28;3.20;;;22.20;62.50;;;;;;5054478;28;20213;-79
2023/09/03 01:37:16;;;;;;;4.18;3.00;;;22.20;62.60;;;;;;5055362;28;20264;-79
2023/09/03 01:39:43;;;;;;;4.22;2.75;;;22.20;62.50;;;;;;5054315;28;20208;-79
2023/09/03 01:42:11;;;;;;;3.70;3.00;;;22.20;62.60;;;;;;5054040;28;20286;-79
2023/09/03 01:44:38;;;;;;;3.20;2.90;;;22.20;62.50;;;;;;5053831;28;20219;-79
2023/09/03 01:47:10;;;;;;;4.25;2.90;;;22.20;62.60;;;;;;5037636;28;20261;-79
2023/09/03 01:49:42;;;;;;;5.72;2.95;;;22.20;62.60;;;;;;5053875;28;20195;-79
2023/09/03 01:52:14;;;;;;;3.30;3.00;;;22.20;62.60;;;;;;5037463;28;20619;-79
2023/09/03 01:54:46;;;;;;;4.25;3.03;;;22.10;62.50;;;;;;5054655;28;20202;-79
2023/09/03 01:57:16;;;;;;;2.88;2.58;;;22.10;62.50;;;;;;5053845;28;20290;-79
2023/09/03 01:59:44;;;;;;;3.95;3.15;;;22.10;62.50;;;;;;5053574;28;20224;-79
2023/09/03 02:02:13;;;;;;;2.80;2.60;;;22.10;62.40;;;;;;5053854;28;20226;-79
2023/09/03 02:04:40;;;;;;;2.88;2.60;;;22.10;62.50;;;;;;5053348;28;20550;-79
2023/09/03 02:07:07;;;;;;;3.22;2.85;;;22.10;62.50;;;;;;5053535;28;20231;-79
2023/09/03 02:09:34;;;;;;;3.35;3.03;;;22.10;62.50;;;;;;5053657;28;20203;-79
2023/09/03 02:12:02;;;;;;;3.75;2.92;;;22.00;62.40;;;;;;5053578;28;20713;-79
2023/09/03 02:14:29;;;;;;;4.28;3.33;;;22.10;62.50;;;;;;5053803;28;20199;-79
2023/09/03 02:16:56;;;;;;;4.13;3.00;;;22.00;62.40;;;;;;5052654;28;20192;-79
2023/09/03 02:19:25;;;;;;;3.00;2.70;;;22.10;62.50;;;;;;5053991;28;20217;-79
2023/09/03 02:21:52;;;;;;;4.03;3.03;;;22.10;62.50;;;;;;5053519;28;20219;-79
2023/09/03 02:24:19;;;;;;;3.88;3.33;;;22.10;62.60;;;;;;5053373;28;20278;-79
2023/09/03 02:26:46;;;;;;;2.92;2.63;;;22.00;62.50;;;;;;5053315;28;20215;-79
2023/09/03 02:29:14;;;;;;;3.10;2.70;;;22.00;62.50;;;;;;5053476;28;20195;-79
2023/09/03 02:31:41;;;;;;;5.28;2.97;;;22.00;62.40;;;;;;5053177;28;20219;-79
2023/09/03 02:34:10;;;;;;;2.75;2.55;;;22.00;62.40;;;;;;5053683;28;20621;-79
2023/09/03 02:36:38;;;;;;;3.72;2.55;;;22.00;62.40;;;;;;5054597;28;20282;-79
2023/09/03 02:39:06;;;;;;;2.90;2.60;;;22.00;62.30;;;;;;5052969;28;20195;-79
2023/09/03 02:41:33;;;;;;;3.60;2.85;;;22.00;62.40;;;;;;5052879;28;20226;-79
2023/09/03 02:44:01;;;;;;;3.40;2.83;;;22.00;62.50;;;;;;5053157;28;20545;-79
2023/09/03 02:46:28;;;;;;;4.93;2.70;;;22.00;62.40;;;;;;5036602;28;20654;-79
2023/09/03 02:48:55;;;;;;;4.60;3.03;;;22.00;62.40;;;;;;5052805;28;20199;-79
2023/09/03 02:51:23;;;;;;;3.42;2.65;;;22.00;62.50;;;;;;5053835;28;20306;-79
2023/09/03 02:53:51;;;;;;;3.03;2.72;;;22.00;62.50;;;;;;5036696;28;20658;-79
2023/09/03 02:56:18;;;;;;;2.92;2.63;;;22.00;62.50;;;;;;5052568;28;20662;-79
2023/09/03 02:58:47;;;;;;;2.83;2.63;;;21.90;62.40;;;;;;5052567;28;20654;-79
2023/09/03 03:01:15;;;;;;;3.00;2.65;;;21.90;62.40;;;;;;5052552;28;20211;-79
2023/09/03 03:03:42;;;;;;;4.03;3.03;;;21.90;62.40;;;;;;5053251;28;20264;-78
2023/09/03 03:06:09;;;;;;;3.20;2.90;;;21.90;62.40;;;;;;5052733;28;20295;-79
2023/09/03 03:08:36;;;;;;;4.68;2.72;;;21.90;62.40;;;;;;5053185;28;20226;-79
2023/09/03 03:11:09;;;;;;;5.20;3.00;;;21.90;62.40;;;;;;5036016;28;20223;-79
2023/09/03 03:13:39;;;;;;;3.78;3.10;;;21.90;62.40;;;;;;5052831;28;20198;-79
2023/09/03 03:16:07;;;;;;;3.30;3.00;;;21.90;62.40;;;;;;5052455;28;20257;-79
2023/09/03 03:18:35;;;;;;;3.38;2.83;;;22.00;62.20;;;;;;5036903;28;20282;-79
2023/09/03 03:21:07;;;;;;;4.43;2.92;;;22.10;62.00;;;;;;5052700;28;20227;-79
2023/09/03 03:23:34;;;;;;;3.05;2.80;;;22.20;61.50;;;;;;5053581;28;20226;-79
2023/09/03 03:26:02;;;;;;;3.15;2.85;;;22.30;61.10;;;;;;5053095;28;20207;-79
2023/09/03 03:28:32;;;;;;;3.47;2.60;;;22.30;60.90;;;;;;5056854;28;20227;-79
2023/09/03 03:31:08;;;;;;;2.58;2.38;;;22.40;60.50;;;;;;5058186;28;20284;-79
2023/09/03 03:33:35;;;;;;;3.25;2.58;;;22.50;60.20;;;;;;5058254;28;20193;-79
2023/09/03 03:36:03;;;;;;;3.08;2.78;;;22.60;59.90;;;;;;5061480;28;20202;-79
2023/09/03 03:38:31;;;;;;;4.32;2.78;;;22.70;59.80;;;;;;5060706;28;20200;-79
2023/09/03 03:41:09;;;;;;;3.88;2.47;;;22.70;59.60;;;;;;5056310;28;20755;-78
2023/09/03 03:43:38;;;;;;;3.38;2.83;;;22.70;59.50;;;;;;5040976;28;20199;-78
2023/09/03 03:46:05;;;;;;;2.83;2.42;;;22.70;59.30;;;;;;5056603;28;20336;-77
2023/09/03 03:48:33;;;;;;;2.75;2.35;;;22.80;59.40;;;;;;5058617;28;20218;-79
2023/09/03 03:51:00;;;;;;;3.00;2.70;;;22.80;59.20;;;;;;5056784;28;20298;-79
2023/09/03 03:53:28;;;;;;;3.08;2.60;;;22.80;59.20;;;;;;5057798;28;20203;-79
2023/09/03 03:55:59;;;;;;;2.90;2.70;;;22.90;59.10;;;;;;5040288;28;20207;-79
2023/09/03 03:58:26;;;;;;;4.75;2.60;;;22.80;59.00;;;;;;5059141;28;20180;-79
2023/09/03 04:00:55;;;;;;;2.70;2.50;;;22.80;59.60;;;;;;5057554;28;20667;-79
2023/09/03 04:03:23;;;;;;;4.80;2.47;;;22.80;58.90;;;;;;5057846;28;20227;-79
2023/09/03 04:05:57;;;;;;;5.03;2.70;;;22.80;58.90;;;;;;5056140;28;20253;-79
2023/09/03 04:08:25;;;;;;;2.78;2.58;;;22.80;58.90;;;;;;5056831;28;20215;-79
2023/09/03 04:10:56;;;;;;;3.08;2.65;;;22.70;58.90;;;;;;5056571;28;20215;-79
2023/09/03 04:13:24;;;;;;;3.78;2.33;;;22.70;58.90;;;;;;5057763;28;20540;-79
2023/09/03 04:15:51;;;;;;;3.58;2.50;;;22.70;58.90;;;;;;5056178;28;20210;-79
2023/09/03 04:18:20;;;;;;;4.43;2.83;;;22.70;58.90;;;;;;5039843;28;20215;-79
2023/09/03 04:20:51;;;;;;;2.63;2.40;;;22.70;58.80;;;;;;5057967;28;20215;-79
2023/09/03 04:23:20;;;;;;;2.67;2.47;;;22.70;58.90;;;;;;5041686;28;20580;-79
2023/09/03 04:25:47;;;;;;;3.10;2.53;;;22.60;58.70;;;;;;5060887;28;20195;-79
2023/09/03 04:28:14;;;;;;;3.25;2.90;;;22.60;58.80;;;;;;5056456;28;20211;-79
2023/09/03 04:30:41;;;;;;;3.53;2.30;;;22.60;58.90;;;;;;5057110;28;20215;-79
2023/09/03 04:33:09;;;;;;;3.55;2.72;;;22.60;58.90;;;;;;5056996;28;20219;-79
2023/09/03 04:35:39;;;;;;;5.15;2.80;;;22.60;59.00;;;;;;5055949;28;20206;-79
2023/09/03 04:38:08;;;;;;;5.05;2.55;;;22.50;59.00;;;;;;5056650;28;20199;-79
2023/09/03 04:40:36;;;;;;;3.45;2.80;;;22.50;59.10;;;;;;5057193;28;20589;-79
2023/09/03 04:43:05;;;;;;;3.13;2.83;;;22.40;59.10;;;;;;5055888;28;20241;-79
2023/09/03 04:45:34;;;;;;;2.88;2.67;;;22.40;59.30;;;;;;5056065;28;20596;-79
2023/09/03 04:48:03;;;;;;;4.53;2.88;;;22.30;59.30;;;;;;5058630;28;20207;-79
2023/09/03 04:50:34;;;;;;;4.45;2.58;;;22.30;59.40;;;;;;5058511;28;20219;-79
2023/09/03 04:53:04;;;;;;;3.45;2.85;;;22.20;59.50;;;;;;5040262;28;20605;-79
2023/09/03 04:55:32;;;;;;;3.13;2.60;;;22.20;59.70;;;;;;5102399;22;20284;-82
2023/09/03 04:57:59;;;;;;;5.70;2.97;;;22.20;59.70;;;;;;5076316;28;20195;-82
2023/09/03 05:00:26;;;;;;;3.38;2.50;;;22.10;59.70;;;;;;5075538;28;20309;-82
2023/09/03 05:02:53;;;;;;;3.03;2.80;;;22.10;59.80;;;;;;5076943;28;20187;-82
2023/09/03 05:05:21;;;;;;;3.58;3.03;;;22.10;59.80;;;;;;5075582;28;20198;-82
2023/09/03 05:07:48;;;;;;;5.07;2.72;;;22.00;59.90;;;;;;5076410;28;20600;-82
2023/09/03 05:10:18;;;;;;;4.25;3.22;;;22.00;59.90;;;;;;5076961;28;20202;-82
2023/09/03 05:12:45;;;;;;;3.35;3.05;;;22.10;60.00;;;;;;5075544;28;20281;-82
2023/09/03 05:15:13;;;;;;;3.50;3.20;;;22.10;60.10;;;;;;5075443;28;20722;-82
2023/09/03 05:17:41;;;;;;;5.15;3.35;;;22.10;60.10;;;;;;5059699;28;20195;-82
2023/09/03 05:20:09;;;;;;;3.50;3.20;;;22.10;60.10;;;;;;5061621;28;20240;-82
2023/09/03 05:22:37;;;;;;;4.25;2.92;;;22.00;60.20;;;;;;5076419;28;20194;-82
2023/09/03 05:25:05;;;;;;;3.88;3.47;;;22.00;60.20;;;;;;5077095;28;20225;-82
2023/09/03 05:27:34;;;;;;;3.83;3.17;;;22.00;60.20;;;;;;5075659;28;20215;-82
2023/09/03 05:30:02;;;;;;;3.50;3.20;;;22.00;60.40;;;;;;5075985;28;20700;-82
2023/09/03 05:32:30;;;;;;;5.18;3.33;;;22.00;60.40;;;;;;5075346;28;20223;-82
2023/09/03 05:34:57;;;;;;;3.67;3.38;;;22.00;60.50;;;;;;5075231;28;20723;-82
2023/09/03 05:37:24;;;;;;;3.75;3.28;;;22.00;60.60;;;;;;5074958;28;20274;-82
2023/09/03 05:39:51;;;;;;;3.58;3.28;;;22.00;60.50;;;;;;5076734;28;20191;-82
2023/09/03 05:42:21;;;;;;;5.00;3.35;;;22.00;60.60;;;;;;5075310;28;20685;-82
2023/09/03 05:44:49;;;;;;;3.88;3.58;;;22.00;60.60;;;;;;5076433;28;20195;-82
2023/09/03 05:47:18;;;;;;;4.32;3.45;;;22.00;60.60;;;;;;5076136;28;20604;-82
2023/09/03 05:49:48;;;;;;;3.95;3.55;;;22.00;60.60;;;;;;5076094;28;20205;-82
2023/09/03 05:52:15;;;;;;;5.03;3.53;;;22.10;60.70;;;;;;5079776;28;20226;-82
2023/09/03 05:54:42;;;;;;;4.78;3.58;;;22.00;60.70;;;;;;5079042;28;20206;-82
2023/09/03 05:57:10;;;;;;;4.30;3.40;;;22.10;60.80;;;;;;5079237;28;20209;-81
2023/09/03 05:59:37;;;;;;;3.97;3.67;;;22.10;60.80;;;;;;5078600;28;20649;-82
2023/09/03 06:02:05;;;;;;;3.63;3.33;;;22.00;60.80;;;;;;5060796;28;20222;-82
2023/09/03 06:04:33;;;;;;;3.88;3.53;;;22.10;60.80;;;;;;5076783;28;20675;-82
2023/09/03 06:07:00;;;;;;;3.75;3.45;;;22.20;61.00;;;;;;5075199;28;20221;-82
2023/09/03 06:09:27;;;;;;;4.18;3.70;;;22.10;60.90;;;;;;5074154;28;20301;-82
2023/09/03 06:11:54;;;;;;;3.22;3.00;;;22.10;60.80;;;;;;5074262;28;20316;-82
2023/09/03 06:14:21;;;;;;;3.65;3.35;;;22.20;61.00;;;;;;5073983;28;20241;-82
2023/09/03 06:16:49;;;;;;;3.90;3.50;;;22.20;61.00;;;;;;5075188;28;20294;-82
2023/09/03 06:19:18;;;;;;;3.95;3.25;;;22.20;60.80;;;;;;5074448;28;20571;-82
2023/09/03 06:21:45;;;;;;;4.72;3.30;;;22.20;60.80;;;;;;5059032;28;20225;-82
2023/09/03 06:24:12;;;;;;;5.88;3.88;;;22.30;60.90;;;;;;5058907;28;20617;-82
2023/09/03 06:26:39;;;;;;;3.83;3.53;;;22.30;60.90;;;;;;5075304;28;20199;-82
2023/09/03 06:29:07;;;;;;;4.40;3.50;;;22.40;61.00;;;;;;5075356;28;20220;-83
2023/09/03 06:31:34;;;;;;;5.55;3.50;;;22.40;61.00;;;;;;5074985;28;20215;-82
2023/09/03 06:34:01;;;;;;;4.90;3.58;;;22.50;61.00;;;;;;5075206;28;20194;-82
2023/09/03 06:36:30;;;;;;;3.60;3.30;;;22.50;60.90;;;;;;5076046;28;20221;-83
2023/09/03 06:38:57;;;;;;;3.83;3.42;;;22.60;60.70;;;;;;5074515;28;20650;-83
2023/09/03 06:41:24;;;;;;;3.70;3.40;;;22.70;60.50;;;;;;5057592;28;20219;-83
2023/09/03 06:43:51;;;;;;;5.68;3.42;;;22.70;60.30;;;;;;5074331;28;20198;-83
2023/09/03 06:46:18;;;;;;;3.95;3.28;;;22.80;60.20;;;;;;5074328;28;20554;-83
2023/09/03 06:48:45;;;;;;;3.60;2.88;;;22.80;60.00;;;;;;5074817;28;20210;-83
2023/09/03 06:51:12;;;;;;;3.95;3.55;;;22.90;60.00;;;;;;5073992;28;20222;-83
2023/09/03 06:53:41;;;;;;;4.30;3.70;;;22.90;59.90;;;;;;5075169;28;20194;-83
2023/09/03 06:56:08;;;;;;;4.03;3.10;;;22.90;59.90;;;;;;5073514;28;20203;-83
2023/09/03 06:58:35;;;;;;;3.45;3.15;;;22.90;59.80;;;;;;5073842;28;20272;-83
2023/09/03 07:01:04;;;;;;;3.40;3.10;;;22.90;59.80;;;;;;5075079;28;20215;-83
2023/09/03 07:03:30;;;;;;;3.88;3.05;;;23.00;59.80;;;;;;5072846;28;20203;-83
2023/09/03 07:05:57;;;;;;;3.30;2.95;;;23.00;59.80;;;;;;5073856;28;20203;-83
2023/09/03 07:08:24;;;;;;;3.25;2.90;;;23.00;59.80;;;;;;5073695;28;20262;-83
2023/09/03 07:11:01;;;;;;;3.33;3.03;;;23.00;59.80;;;;;;5074448;28;20661;-84
2023/09/03 07:13:28;;;;;;;3.10;2.80;;;23.00;59.70;;;;;;5075427;28;20545;-83
2023/09/03 07:15:55;;;;;;;3.30;3.00;;;23.00;59.70;;;;;;5095118;28;20205;-83
2023/09/03 07:18:22;;;;;;;2.97;2.78;;;23.10;59.70;;;;;;5096970;28;20265;-83
2023/09/03 07:20:49;;;;;;;3.65;2.90;;;23.10;59.70;;;;;;5085719;28;20313;-82
2023/09/03 07:23:16;;;;;;;5.75;3.13;;;23.10;59.70;;;;;;5074077;28;20198;-83
2023/09/03 07:25:43;;;;;;;3.40;3.05;;;23.10;59.60;;;;;;5073528;28;20201;-84
2023/09/03 07:28:12;;;;;;;5.32;3.30;;;23.10;59.70;;;;;;5073639;28;20264;-83
2023/09/03 07:30:40;;;;;;;3.97;2.67;;;23.10;59.60;;;;;;5073400;28;20223;-83
2023/09/03 07:33:07;;;;;;;3.20;2.90;;;23.20;59.90;;;;;;5074011;28;20588;-83
2023/09/03 07:35:34;;;;;;;3.38;2.83;;;23.10;59.70;;;;;;5073465;28;20225;-83
2023/09/03 07:38:01;;;;;;;3.20;2.47;;;23.10;59.60;;;;;;5073387;28;20195;-83
2023/09/03 07:40:28;;;;;;;3.70;2.88;;;23.20;59.50;;;;;;5073832;28;20218;-84
2023/09/03 07:42:56;;;;;;;4.25;2.90;;;23.20;59.50;;;;;;5073764;28;20196;-83
2023/09/03 07:45:24;;;;;;;3.10;2.78;;;23.30;59.30;;;;;;5073198;28;20289;-84
2023/09/03 07:47:51;;;;;;;3.53;2.92;;;23.40;60.00;;;;;;5074925;28;20187;-83
2023/09/03 07:50:18;;;;;;;4.70;2.90;;;23.40;59.20;;;;;;5075012;28;20226;-83
2023/09/03 07:52:45;;;;;;;2.80;2.60;;;23.50;59.10;;;;;;5074642;28;20198;-83
2023/09/03 07:55:13;;;;;;;3.80;2.83;;;23.50;58.90;;;;;;5073651;28;20213;-83
2023/09/03 07:57:40;;;;;;;3.03;2.50;;;23.60;58.80;;;;;;5074384;28;20195;-84
2023/09/03 08:00:19;;;;;;;2.92;2.65;;;23.70;58.70;;;;;;5074066;28;20191;-83
2023/09/03 08:02:48;;;;;;;4.50;3.35;;;23.80;58.50;;;;;;5184537;22;20678;-78
2023/09/03 08:05:17;;;;;;;4.10;3.58;;;23.80;59.30;;;;;;5036618;28;20289;-78
2023/09/03 08:07:43;;;;;;;4.93;3.53;;;23.80;60.10;;;;;;5017897;28;20291;-79
2023/09/03 08:10:11;;;;;;;5.80;3.65;;;23.70;60.40;;;;;;5032893;28;20295;-78
2023/09/03 08:12:38;;;;;;;6.30;4.20;;;23.80;60.50;;;;;;5033489;28;20196;-78
2023/09/03 08:15:06;;;;;;;5.78;4.38;;;23.80;60.70;;;;;;5034667;28;20188;-78
2023/09/03 08:17:34;;;;;;;7.75;5.00;;;23.80;61.70;;;;;;5036881;28;20261;-78
2023/09/03 08:20:03;;;;;;;5.18;4.22;;;23.80;61.10;;;;;;5036622;28;20204;-79
2023/09/03 08:22:30;;;;;;;6.80;4.78;;;23.80;60.80;;;;;;5036558;28;20687;-79
2023/09/03 08:24:58;;;;;;;5.78;4.53;;;23.90;61.10;;;;;;5036380;28;20200;-79
2023/09/03 08:27:25;;;;;;;5.63;4.78;;;23.90;61.60;;;;;;5020031;28;20218;-79
2023/09/03 08:29:52;;;;;;;5.25;4.68;;;24.00;61.50;;;;;;5036869;28;20266;-78
2023/09/03 08:32:19;;;;;;;5.68;3.85;;;24.00;61.50;;;;;;5036004;28;20315;-79
2023/09/03 08:34:47;;;;;;;4.10;3.70;;;24.10;60.10;;;;;;5036633;28;20220;-78
2023/09/03 08:37:15;;;;;;;4.80;3.88;;;24.20;59.80;;;;;;5020142;28;20611;-79
2023/09/03 08:39:42;;;;;;;4.55;3.80;;;24.40;59.40;;;;;;5035800;28;20195;-78
2023/09/03 08:42:09;;;;;;;4.78;3.95;;;24.50;59.00;;;;;;5035655;28;20215;-79
2023/09/03 08:44:37;;;;;;;6.10;4.07;;;24.60;58.80;;;;;;5020166;28;20195;-78
2023/09/03 08:47:04;;;;;;;5.53;4.22;;;24.70;60.30;;;;;;5036035;28;20199;-78
2023/09/03 08:49:32;;;;;;;6.32;4.70;;;24.70;60.90;;;;;;5035530;28;20265;-78
2023/09/03 08:51:59;;;;;;;5.13;4.57;;;24.70;61.00;;;;;;5036384;28;20596;-79
2023/09/03 08:54:28;;;;;;;4.72;4.25;;;24.80;60.80;;;;;;5035801;28;20697;-79
2023/09/03 08:56:55;;;;;;;7.20;4.90;;;24.90;60.90;;;;;;5037028;28;20188;-79
2023/09/03 08:59:22;;;;;;;6.05;4.47;;;24.80;60.50;;;;;;5036320;28;20219;-79
2023/09/03 09:01:51;;;;;;;6.18;5.30;;;24.80;60.80;;;;;;5035949;28;20219;-79
2023/09/03 09:04:18;;;;;;;38.10;22.13;;;24.90;61.00;;;;;;5035534;28;20551;-79
2023/09/03 09:06:46;;;;;;;26.30;18.40;;;24.90;61.10;;;;;;5035924;28;20192;-79
2023/09/03 09:09:13;;;;;;;89.60;57.53;;;24.90;60.70;;;;;;5018845;28;20258;-79
2023/09/03 09:11:44;;;;;;;48.42;34.70;;;24.90;60.70;;;;;;5035428;28;20686;-79
2023/09/03 09:14:15;;;;;;;31.25;22.98;;;25.10;60.70;;;;;;5035444;28;20195;-79
2023/09/03 09:16:42;;;;;;;20.35;15.10;;;25.10;60.50;;;;;;5035296;28;20205;-79
2023/09/03 09:19:10;;;;;;;12.18;9.45;;;25.10;59.90;;;;;;5034988;28;20258;-79
2023/09/03 09:21:37;;;;;;;10.40;8.05;;;25.20;59.40;;;;;;5035733;28;20243;-79
2023/09/03 09:24:05;;;;;;;10.30;7.70;;;25.20;59.70;;;;;;5035447;28;20207;-79
2023/09/03 09:26:33;;;;;;;7.60;5.95;;;25.30;59.50;;;;;;5036271;28;20183;-80
2023/09/03 09:29:02;;;;;;;5.47;4.97;;;25.30;59.40;;;;;;5035036;28;20211;-81
2023/09/03 09:31:30;;;;;;;6.57;4.80;;;25.40;60.00;;;;;;5036297;28;20211;-79
2023/09/03 09:33:58;;;;;;;5.90;4.78;;;25.40;59.90;;;;;;5035105;28;20195;-79
2023/09/03 09:36:26;;;;;;;5.50;4.05;;;25.50;59.90;;;;;;5035204;28;20219;-79
2023/09/03 09:38:53;;;;;;;4.63;4.13;;;25.40;59.50;;;;;;5018460;28;20207;-79
2023/09/03 09:41:24;;;;;;;4.93;3.90;;;25.40;58.80;;;;;;5035917;28;20556;-79
2023/09/03 09:43:52;;;;;;;4.30;3.90;;;25.50;58.70;;;;;;5034700;28;20199;-79
2023/09/03 09:46:30;;;;;;;4.00;3.70;;;25.50;58.80;;;;;;5034644;28;20198;-79
2023/09/03 09:48:59;;;;;;;5.82;3.50;;;25.60;58.80;;;;;;5035127;28;20273;-79
2023/09/03 09:51:28;;;;;;;4.40;3.67;;;25.60;58.90;;;;;;5034431;28;20314;-79
2023/09/03 09:53:56;;;;;;;4.00;3.35;;;25.60;58.90;;;;;;5034565;28;20689;-79
2023/09/03 09:56:27;;;;;;;3.75;3.45;;;25.60;59.20;;;;;;5034821;28;20196;-79
2023/09/03 09:58:54;;;;;;;3.92;3.53;;;25.70;58.60;;;;;;5035442;28;20191;-79
2023/09/03 10:01:23;;;;;;;3.83;3.38;;;25.70;58.90;;;;;;5035559;28;20222;-80
2023/09/03 10:03:51;;;;;;;3.88;3.58;;;25.70;58.70;;;;;;5035214;28;20199;-80
2023/09/03 10:06:19;;;;;;;3.47;3.17;;;25.80;58.60;;;;;;5035715;28;20253;-79
2023/09/03 10:08:47;;;;;;;3.75;3.25;;;25.80;58.80;;;;;;5033862;28;20199;-79
2023/09/03 10:11:14;;;;;;;4.35;3.47;;;25.90;58.90;;;;;;5033985;28;20222;-79
2023/09/03 10:13:42;;;;;;;4.32;3.03;;;25.90;58.50;;;;;;5034812;28;20290;-79
2023/09/03 10:16:09;;;;;;;3.22;2.92;;;25.90;57.70;;;;;;5035195;28;20195;-79
2023/09/03 10:18:40;;;;;;;3.30;3.03;;;26.00;57.50;;;;;;5034597;28;20274;-79
2023/09/03 10:21:09;;;;;;;3.00;2.65;;;26.10;57.20;;;;;;5033812;28;20216;-79
2023/09/03 10:23:40;;;;;;;3.17;2.50;;;26.20;57.10;;;;;;5035101;28;20290;-78
2023/09/03 10:26:08;;;;;;;3.22;2.85;;;26.20;57.10;;;;;;5018419;28;20286;-79
2023/09/03 10:28:37;;;;;;;2.78;2.58;;;26.20;56.80;;;;;;5017372;28;20729;-78
2023/09/03 10:31:04;;;;;;;2.90;2.70;;;26.20;56.70;;;;;;5034229;28;20211;-78
2023/09/03 10:33:33;;;;;;;2.72;2.53;;;26.20;56.70;;;;;;5033586;28;20253;-79
2023/09/03 10:36:15;;;;;;;3.53;2.78;;;26.20;56.40;;;;;;5033195;28;20200;-78
2023/09/03 10:38:42;;;;;;;2.50;2.30;;;26.20;56.40;;;;;;5016356;28;20199;-79
2023/09/03 10:41:17;;;;;;;2.20;2.00;;;26.30;55.80;;;;;;5033010;28;20224;-79
2023/09/03 10:43:45;;;;;;;2.35;2.15;;;26.20;55.80;;;;;;5033384;28;20203;-80
2023/09/03 10:46:12;;;;;;;2.70;2.20;;;26.30;55.70;;;;;;5034644;28;20209;-79
2023/09/03 10:48:39;;;;;;;2.95;2.35;;;26.20;55.60;;;;;;5034585;28;20199;-79
2023/09/03 10:51:06;;;;;;;2.10;1.90;;;26.30;55.60;;;;;;5035112;28;20250;-79
2023/09/03 10:56:27;;;;;;;2.38;2.10;;;26.30;55.90;;;;;;5099921;28;20277;-80
2023/09/03 10:58:56;;;;;;;2.20;2.00;;;26.30;55.90;;;;;;5086572;28;20233;-80
2023/09/03 11:01:26;;;;;;;2.58;2.10;;;26.20;56.00;;;;;;5088492;28;20225;-82
2023/09/03 11:03:53;;;;;;;2.05;1.85;;;26.30;56.10;;;;;;5078789;28;20219;-81
2023/09/03 11:06:21;;;;;;;2.40;2.20;;;26.20;56.30;;;;;;5078204;28;20193;-81
2023/09/03 11:08:50;;;;;;;2.42;1.95;;;26.20;56.20;;;;;;5078555;28;20240;-81
2023/09/03 11:11:20;;;;;;;2.65;2.15;;;26.30;56.40;;;;;;5061343;28;20217;-80
2023/09/03 11:13:53;;;;;;;2.28;2.08;;;26.20;56.20;;;;;;5078072;28;20243;-80
2023/09/03 11:16:27;;;;;;;2.70;2.10;;;26.30;56.20;;;;;;5077818;28;20189;-81
2023/09/03 11:18:54;;;;;;;2.20;2.00;;;26.30;56.20;;;;;;5078353;28;20189;-81
2023/09/03 11:21:23;;;;;;;2.65;1.90;;;26.30;56.10;;;;;;5078336;28;20221;-81
2023/09/03 11:24:02;;;;;;;2.42;1.92;;;26.30;56.10;;;;;;5079555;28;20203;-80
2023/09/03 11:26:29;;;;;;;2.00;1.90;;;26.30;56.20;;;;;;5079160;28;20197;-81
2023/09/03 11:28:56;;;;;;;1.95;1.73;;;26.30;56.10;;;;;;5078986;28;20247;-81
2023/09/03 11:31:24;;;;;;;2.13;1.92;;;26.30;56.20;;;;;;5078975;28;20308;-81
2023/09/03 11:33:51;;;;;;;2.13;1.92;;;26.30;56.40;;;;;;5078036;28;20197;-81
2023/09/03 11:36:21;;;;;;;4.88;2.13;;;26.20;56.40;;;;;;5077347;28;20215;-81
2023/09/03 11:38:49;;;;;;;2.15;1.95;;;26.20;56.50;;;;;;5077923;28;20559;-81
2023/09/03 11:41:18;;;;;;;2.22;1.98;;;26.20;56.60;;;;;;5078432;28;20308;-82
2023/09/03 11:43:46;;;;;;;2.20;2.00;;;26.20;56.50;;;;;;5077620;28;20201;-82
2023/09/03 11:46:13;;;;;;;2.10;1.90;;;26.20;56.40;;;;;;5076276;28;20725;-81
2023/09/03 11:48:40;;;;;;;2.17;1.98;;;26.20;56.50;;;;;;5076595;28;20201;-81
2023/09/03 11:51:08;;;;;;;2.17;1.98;;;26.20;57.00;;;;;;5080437;28;20311;-80
2023/09/03 11:53:39;;;;;;;2.03;1.90;;;26.20;56.40;;;;;;5080010;28;20232;-80
2023/09/03 11:56:07;;;;;;;1.90;1.80;;;26.20;56.40;;;;;;5063214;28;20216;-81
2023/09/03 11:58:35;;;;;;;3.58;2.17;;;26.20;56.40;;;;;;5080103;28;20217;-81
2023/09/03 12:01:03;;;;;;;2.88;2.00;;;26.20;56.30;;;;;;5080086;28;20224;-81
2023/09/03 12:03:30;;;;;;;2.30;2.10;;;26.20;56.40;;;;;;5081548;28;20195;-81
2023/09/03 12:05:57;;;;;;;1.98;1.77;;;26.20;56.40;;;;;;5081092;28;20206;-81
2023/09/03 12:08:25;;;;;;;2.50;2.00;;;26.20;56.30;;;;;;5064269;28;20193;-81
2023/09/03 12:10:51;;;;;;;1.90;1.80;;;26.10;56.30;;;;;;5063582;28;20236;-81
2023/09/03 12:13:31;;;;;;;3.15;1.63;;;26.10;56.40;;;;;;5063126;28;20694;-81
2023/09/03 12:16:05;;;;;;;1.90;1.80;;;26.10;56.40;;;;;;5079405;28;20536;-81
2023/09/03 12:18:33;;;;;;;2.15;1.95;;;26.10;56.50;;;;;;5080412;28;20319;-81
2023/09/03 12:20:59;;;;;;;4.53;1.80;;;26.10;56.40;;;;;;5078995;28;20214;-81
2023/09/03 12:23:27;;;;;;;5.57;2.30;;;26.10;56.30;;;;;;5079369;28;20208;-81
2023/09/03 12:25:54;;;;;;;1.95;1.75;;;26.20;56.50;;;;;;5079497;28;20200;-81
2023/09/03 12:28:33;;;;;;;2.10;1.90;;;26.20;56.40;;;;;;5079372;28;20228;-81
2023/09/03 12:31:01;;;;;;;2.30;2.00;;;26.20;56.40;;;;;;5079695;28;20282;-81
2023/09/03 12:33:44;;;;;;;2.08;1.98;;;26.20;56.40;;;;;;5079884;28;20205;-81
2023/09/03 12:36:12;;;;;;;2.42;2.05;;;26.20;56.40;;;;;;5079662;28;20186;-80
2023/09/03 12:38:55;;;;;;;2.05;1.77;;;26.20;56.30;;;;;;5079269;28;20193;-80
2023/09/03 12:41:23;;;;;;;2.17;1.73;;;26.20;56.40;;;;;;5079625;28;20213;-80
2023/09/03 12:43:50;;;;;;;2.72;1.98;;;26.20;56.40;;;;;;5069322;28;20294;-80
2023/09/03 12:46:17;;;;;;;2.03;1.75;;;26.20;56.40;;;;;;5078610;28;20209;-81
2023/09/03 12:48:45;;;;;;;3.00;2.00;;;26.20;56.40;;;;;;5079804;28;20246;-81
2023/09/03 12:51:12;;;;;;;2.05;1.80;;;26.20;56.50;;;;;;5079209;28;20684;-81
2023/09/03 12:53:40;;;;;;;4.18;2.00;;;26.10;56.90;;;;;;5079306;28;20193;-81